sensor_id;sensor_type;location;lat;lon;timestamp;temperature;humidity
19365;DHT22;9818;48.382;10.850;2023-12-20T00:00:09;19.70;1.00
19365;DHT22;9818;48.382;10.850;2023-12-20T00:02:38;19.60;1.00
19365;DHT22;9818;48.382;10.850;2023-12-20T00:05:10;19.60;1.00
19365;DHT22;9818;48.382;10.850;2023-12-20T00:07:39;19.60;1.00
19365;DHT22;9818;48.382;10.850;2023-12-20T00:10:08;19.60;1.00
19365;DHT22;9818;48.382;10.850;2023-12-20T00:12:41;19.60;1.00
19365;DHT22;9818;48.382;10.850;2023-12-20T00:15:10;19.60;1.00
19365;DHT22;9818;48.382;10.850;2023-12-20T00:17:39;19.60;1.00
19365;DHT22;9818;48.382;10.850;2023-12-20T00:20:06;19.60;1.00
19365;DHT22;9818;48.382;10.850;2023-12-20T00:22:35;19.60;1.00
19365;DHT22;9818;48.382;10.850;2023-12-20T00:25:05;19.50;1.00
19365;DHT22;9818;48.382;10.850;2023-12-20T00:27:33;19.50;1.00
19365;DHT22;9818;48.382;10.850;2023-12-20T00:30:06;19.50;1.00
19365;DHT22;9818;48.382;10.850;2023-12-20T00:32:35;19.50;1.00
19365;DHT22;9818;48.382;10.850;2023-12-20T00:35:04;19.50;1.00
19365;DHT22;9818;48.382;10.850;2023-12-20T00:37:33;19.50;1.00
19365;DHT22;9818;48.382;10.850;2023-12-20T00:40:02;19.50;1.00
19365;DHT22;9818;48.382;10.850;2023-12-20T00:42:31;19.50;1.00
19365;DHT22;9818;48.382;10.850;2023-12-20T00:45:04;19.50;1.00
19365;DHT22;9818;48.382;10.850;2023-12-20T00:47:33;19.40;1.00
19365;DHT22;9818;48.382;10.850;2023-12-20T00:50:02;19.40;1.00
19365;DHT22;9818;48.382;10.850;2023-12-20T00:52:29;19.40;1.00
19365;DHT22;9818;48.382;10.850;2023-12-20T00:54:57;19.40;1.00
19365;DHT22;9818;48.382;10.850;2023-12-20T00:57:26;19.40;1.00
19365;DHT22;9818;48.382;10.850;2023-12-20T00:59:55;19.40;1.00
19365;DHT22;9818;48.382;10.850;2023-12-20T01:02:26;19.40;1.00
19365;DHT22;9818;48.382;10.850;2023-12-20T01:04:55;19.40;1.00
19365;DHT22;9818;48.382;10.850;2023-12-20T01:07:24;19.40;1.00
19365;DHT22;9818;48.382;10.850;2023-12-20T01:09:53;19.40;1.00
19365;DHT22;9818;48.382;10.850;2023-12-20T01:12:22;19.40;1.00
19365;DHT22;9818;48.382;10.850;2023-12-20T01:14:50;19.40;1.00
19365;DHT22;9818;48.382;10.850;2023-12-20T01:17:19;19.40;1.00
19365;DHT22;9818;48.382;10.850;2023-12-20T01:19:51;19.30;1.00
19365;DHT22;9818;48.382;10.850;2023-12-20T01:22:19;19.40;1.00
19365;DHT22;9818;48.382;10.850;2023-12-20T01:24:48;19.30;1.00
19365;DHT22;9818;48.382;10.850;2023-12-20T01:27:17;19.30;1.00
19365;DHT22;9818;48.382;10.850;2023-12-20T01:29:46;19.30;1.00
19365;DHT22;9818;48.382;10.850;2023-12-20T01:32:14;19.30;1.00
19365;DHT22;9818;48.382;10.850;2023-12-20T01:34:43;19.30;1.00
19365;DHT22;9818;48.382;10.850;2023-12-20T01:37:16;19.30;1.00
19365;DHT22;9818;48.382;10.850;2023-12-20T01:39:45;19.30;1.00
19365;DHT22;9818;48.382;10.850;2023-12-20T01:42:14;19.30;1.00
19365;DHT22;9818;48.382;10.850;2023-12-20T01:44:43;19.30;1.00
19365;DHT22;9818;48.382;10.850;2023-12-20T01:47:12;19.30;1.00
19365;DHT22;9818;48.382;10.850;2023-12-20T01:49:41;19.20;1.00
19365;DHT22;9818;48.382;10.850;2023-12-20T01:52:10;19.30;1.00
19365;DHT22;9818;48.382;10.850;2023-12-20T01:54:42;19.30;1.00
19365;DHT22;9818;48.382;10.850;2023-12-20T01:57:11;19.30;1.00
19365;DHT22;9818;48.382;10.850;2023-12-20T01:59:40;19.30;1.00
19365;DHT22;9818;48.382;10.850;2023-12-20T02:02:09;19.20;1.00
19365;DHT22;9818;48.382;10.850;2023-12-20T02:04:38;19.20;1.00
19365;DHT22;9818;48.382;10.850;2023-12-20T02:07:07;19.20;1.00
19365;DHT22;9818;48.382;10.850;2023-12-20T02:09:37;19.20;1.00
19365;DHT22;9818;48.382;10.850;2023-12-20T02:12:09;19.20;1.00
19365;DHT22;9818;48.382;10.850;2023-12-20T02:14:38;19.20;1.00
19365;DHT22;9818;48.382;10.850;2023-12-20T02:17:07;19.20;1.00
19365;DHT22;9818;48.382;10.850;2023-12-20T02:19:36;19.20;1.00
19365;DHT22;9818;48.382;10.850;2023-12-20T02:22:11;19.20;1.00
19365;DHT22;9818;48.382;10.850;2023-12-20T02:24:38;19.20;1.00
19365;DHT22;9818;48.382;10.850;2023-12-20T02:27:07;19.20;1.00
19365;DHT22;9818;48.382;10.850;2023-12-20T02:29:36;19.20;1.00
19365;DHT22;9818;48.382;10.850;2023-12-20T02:32:05;19.20;1.00
19365;DHT22;9818;48.382;10.850;2023-12-20T02:34:34;19.20;1.00
19365;DHT22;9818;48.382;10.850;2023-12-20T02:37:03;19.20;1.00
19365;DHT22;9818;48.382;10.850;2023-12-20T02:39:35;19.20;1.00
19365;DHT22;9818;48.382;10.850;2023-12-20T02:42:04;19.20;1.00
19365;DHT22;9818;48.382;10.850;2023-12-20T02:44:32;19.20;1.00
19365;DHT22;9818;48.382;10.850;2023-12-20T02:47:02;19.20;1.00
19365;DHT22;9818;48.382;10.850;2023-12-20T02:49:31;19.10;1.00
19365;DHT22;9818;48.382;10.850;2023-12-20T02:52:00;19.10;1.00
19365;DHT22;9818;48.382;10.850;2023-12-20T02:54:28;19.10;1.00
19365;DHT22;9818;48.382;10.850;2023-12-20T02:57:00;19.10;1.00
19365;DHT22;9818;48.382;10.850;2023-12-20T02:59:29;19.10;1.00
19365;DHT22;9818;48.382;10.850;2023-12-20T03:01:57;19.10;1.00
19365;DHT22;9818;48.382;10.850;2023-12-20T03:04:26;19.10;1.00
19365;DHT22;9818;48.382;10.850;2023-12-20T03:06:55;19.10;1.00
19365;DHT22;9818;48.382;10.850;2023-12-20T03:09:24;19.10;1.00
19365;DHT22;9818;48.382;10.850;2023-12-20T03:11:53;19.10;1.00
19365;DHT22;9818;48.382;10.850;2023-12-20T03:14:24;19.10;1.00
19365;DHT22;9818;48.382;10.850;2023-12-20T03:16:53;19.10;1.00
19365;DHT22;9818;48.382;10.850;2023-12-20T03:19:22;19.10;1.00
19365;DHT22;9818;48.382;10.850;2023-12-20T03:21:50;19.10;1.00
19365;DHT22;9818;48.382;10.850;2023-12-20T03:24:19;19.10;1.00
19365;DHT22;9818;48.382;10.850;2023-12-20T03:26:48;19.10;1.00
19365;DHT22;9818;48.382;10.850;2023-12-20T03:29:17;19.10;1.00
19365;DHT22;9818;48.382;10.850;2023-12-20T03:31:48;19.00;1.00
19365;DHT22;9818;48.382;10.850;2023-12-20T03:34:17;19.10;1.00
19365;DHT22;9818;48.382;10.850;2023-12-20T03:36:46;19.10;1.00
19365;DHT22;9818;48.382;10.850;2023-12-20T03:39:14;19.10;1.00
19365;DHT22;9818;48.382;10.850;2023-12-20T03:41:43;19.10;1.00
19365;DHT22;9818;48.382;10.850;2023-12-20T03:44:12;19.10;1.00
19365;DHT22;9818;48.382;10.850;2023-12-20T03:46:41;19.00;1.00
19365;DHT22;9818;48.382;10.850;2023-12-20T03:49:14;19.10;1.00
19365;DHT22;9818;48.382;10.850;2023-12-20T03:51:42;19.00;1.00
19365;DHT22;9818;48.382;10.850;2023-12-20T03:54:11;19.00;1.00
19365;DHT22;9818;48.382;10.850;2023-12-20T03:56:40;19.00;1.00
19365;DHT22;9818;48.382;10.850;2023-12-20T03:59:09;19.00;1.00
19365;DHT22;9818;48.382;10.850;2023-12-20T04:01:37;19.00;1.00
19365;DHT22;9818;48.382;10.850;2023-12-20T04:04:06;19.00;1.00
19365;DHT22;9818;48.382;10.850;2023-12-20T04:06:38;19.00;1.00
19365;DHT22;9818;48.382;10.850;2023-12-20T04:09:06;19.00;1.00
19365;DHT22;9818;48.382;10.850;2023-12-20T04:11:36;19.00;1.00
19365;DHT22;9818;48.382;10.850;2023-12-20T04:14:05;19.00;1.00
19365;DHT22;9818;48.382;10.850;2023-12-20T04:16:34;19.00;1.00
19365;DHT22;9818;48.382;10.850;2023-12-20T04:19:05;19.00;1.00
19365;DHT22;9818;48.382;10.850;2023-12-20T04:21:33;19.00;1.00
19365;DHT22;9818;48.382;10.850;2023-12-20T04:24:05;19.00;1.00
19365;DHT22;9818;48.382;10.850;2023-12-20T04:26:34;19.00;1.00
19365;DHT22;9818;48.382;10.850;2023-12-20T04:29:03;19.00;1.00
19365;DHT22;9818;48.382;10.850;2023-12-20T04:31:32;19.00;1.00
19365;DHT22;9818;48.382;10.850;2023-12-20T04:34:00;19.00;1.00
19365;DHT22;9818;48.382;10.850;2023-12-20T04:36:29;19.00;1.00
19365;DHT22;9818;48.382;10.850;2023-12-20T04:38:58;18.90;1.00
19365;DHT22;9818;48.382;10.850;2023-12-20T04:41:30;19.00;1.00
19365;DHT22;9818;48.382;10.850;2023-12-20T04:43:59;18.90;1.00
19365;DHT22;9818;48.382;10.850;2023-12-20T04:46:28;18.90;1.00
19365;DHT22;9818;48.382;10.850;2023-12-20T04:48:57;18.90;1.00
19365;DHT22;9818;48.382;10.850;2023-12-20T04:51:25;18.90;1.00
19365;DHT22;9818;48.382;10.850;2023-12-20T04:53:54;18.90;1.00
19365;DHT22;9818;48.382;10.850;2023-12-20T04:56:23;18.90;1.00
19365;DHT22;9818;48.382;10.850;2023-12-20T04:58:54;18.90;1.00
19365;DHT22;9818;48.382;10.850;2023-12-20T05:01:23;18.90;1.00
19365;DHT22;9818;48.382;10.850;2023-12-20T05:03:52;18.90;1.00
19365;DHT22;9818;48.382;10.850;2023-12-20T05:06:21;18.90;1.00
19365;DHT22;9818;48.382;10.850;2023-12-20T05:08:50;18.90;1.00
19365;DHT22;9818;48.382;10.850;2023-12-20T05:11:19;18.90;1.00
19365;DHT22;9818;48.382;10.850;2023-12-20T05:13:48;18.90;1.00
19365;DHT22;9818;48.382;10.850;2023-12-20T05:16:19;18.90;1.00
19365;DHT22;9818;48.382;10.850;2023-12-20T05:18:49;18.90;1.00
19365;DHT22;9818;48.382;10.850;2023-12-20T05:21:18;18.90;1.00
19365;DHT22;9818;48.382;10.850;2023-12-20T05:23:47;18.90;1.00
19365;DHT22;9818;48.382;10.850;2023-12-20T05:26:15;18.90;1.00
19365;DHT22;9818;48.382;10.850;2023-12-20T05:28:44;18.90;1.00
19365;DHT22;9818;48.382;10.850;2023-12-20T05:31:13;18.90;1.00
19365;DHT22;9818;48.382;10.850;2023-12-20T05:33:44;18.90;1.00
19365;DHT22;9818;48.382;10.850;2023-12-20T05:36:13;18.90;1.00
19365;DHT22;9818;48.382;10.850;2023-12-20T05:38:42;18.90;1.00
19365;DHT22;9818;48.382;10.850;2023-12-20T05:41:11;18.90;1.00
19365;DHT22;9818;48.382;10.850;2023-12-20T05:43:39;18.90;1.00
19365;DHT22;9818;48.382;10.850;2023-12-20T05:46:10;18.90;1.00
19365;DHT22;9818;48.382;10.850;2023-12-20T05:48:39;18.90;1.00
19365;DHT22;9818;48.382;10.850;2023-12-20T05:51:11;18.90;1.00
19365;DHT22;9818;48.382;10.850;2023-12-20T05:53:40;18.90;1.00
19365;DHT22;9818;48.382;10.850;2023-12-20T05:56:09;18.90;1.00
19365;DHT22;9818;48.382;10.850;2023-12-20T05:58:39;18.90;1.00
19365;DHT22;9818;48.382;10.850;2023-12-20T06:01:08;18.90;1.00
19365;DHT22;9818;48.382;10.850;2023-12-20T06:03:36;18.90;1.00
19365;DHT22;9818;48.382;10.850;2023-12-20T06:06:09;18.90;1.00
19365;DHT22;9818;48.382;10.850;2023-12-20T06:08:38;18.90;1.00
19365;DHT22;9818;48.382;10.850;2023-12-20T06:11:09;18.90;1.00
19365;DHT22;9818;48.382;10.850;2023-12-20T06:13:38;18.90;1.00
19365;DHT22;9818;48.382;10.850;2023-12-20T06:16:07;18.90;1.00
19365;DHT22;9818;48.382;10.850;2023-12-20T06:18:36;18.90;1.00
19365;DHT22;9818;48.382;10.850;2023-12-20T06:21:04;18.90;1.00
19365;DHT22;9818;48.382;10.850;2023-12-20T06:23:36;18.90;1.00
19365;DHT22;9818;48.382;10.850;2023-12-20T06:26:05;18.80;1.00
19365;DHT22;9818;48.382;10.850;2023-12-20T06:28:33;18.90;1.00
19365;DHT22;9818;48.382;10.850;2023-12-20T06:31:02;18.90;1.00
19365;DHT22;9818;48.382;10.850;2023-12-20T06:33:31;18.90;1.00
19365;DHT22;9818;48.382;10.850;2023-12-20T06:36:00;18.90;1.00
19365;DHT22;9818;48.382;10.850;2023-12-20T06:38:29;18.90;1.00
19365;DHT22;9818;48.382;10.850;2023-12-20T06:41:00;18.90;1.00
19365;DHT22;9818;48.382;10.850;2023-12-20T06:43:29;18.90;1.00
19365;DHT22;9818;48.382;10.850;2023-12-20T06:46:00;18.90;1.00
19365;DHT22;9818;48.382;10.850;2023-12-20T06:48:29;18.90;1.00
19365;DHT22;9818;48.382;10.850;2023-12-20T06:50:59;18.90;1.00
19365;DHT22;9818;48.382;10.850;2023-12-20T06:53:28;18.90;1.00
19365;DHT22;9818;48.382;10.850;2023-12-20T06:55:57;18.90;1.00
19365;DHT22;9818;48.382;10.850;2023-12-20T06:58:28;18.90;1.00
19365;DHT22;9818;48.382;10.850;2023-12-20T07:00:57;18.90;1.00
19365;DHT22;9818;48.382;10.850;2023-12-20T07:03:26;18.90;1.00
19365;DHT22;9818;48.382;10.850;2023-12-20T07:05:54;18.80;1.00
19365;DHT22;9818;48.382;10.850;2023-12-20T07:08:23;18.90;1.00
19365;DHT22;9818;48.382;10.850;2023-12-20T07:10:52;18.90;1.00
19365;DHT22;9818;48.382;10.850;2023-12-20T07:13:21;18.80;1.00
19365;DHT22;9818;48.382;10.850;2023-12-20T07:15:53;18.80;1.00
19365;DHT22;9818;48.382;10.850;2023-12-20T07:18:22;18.80;1.00
19365;DHT22;9818;48.382;10.850;2023-12-20T07:20:50;18.80;1.00
19365;DHT22;9818;48.382;10.850;2023-12-20T07:23:20;18.80;1.00
19365;DHT22;9818;48.382;10.850;2023-12-20T07:25:49;18.80;1.00
19365;DHT22;9818;48.382;10.850;2023-12-20T07:28:18;18.80;1.00
19365;DHT22;9818;48.382;10.850;2023-12-20T07:30:46;18.80;1.00
19365;DHT22;9818;48.382;10.850;2023-12-20T07:33:18;18.80;1.00
19365;DHT22;9818;48.382;10.850;2023-12-20T07:35:47;18.80;1.00
19365;DHT22;9818;48.382;10.850;2023-12-20T07:38:17;18.80;1.00
19365;DHT22;9818;48.382;10.850;2023-12-20T07:40:46;18.80;1.00
19365;DHT22;9818;48.382;10.850;2023-12-20T07:43:15;18.80;1.00
19365;DHT22;9818;48.382;10.850;2023-12-20T07:45:43;18.80;1.00
19365;DHT22;9818;48.382;10.850;2023-12-20T07:48:12;18.80;1.00
19365;DHT22;9818;48.382;10.850;2023-12-20T07:50:44;18.80;1.00
19365;DHT22;9818;48.382;10.850;2023-12-20T07:53:13;18.80;1.00
19365;DHT22;9818;48.382;10.850;2023-12-20T07:55:41;18.80;1.00
19365;DHT22;9818;48.382;10.850;2023-12-20T07:58:10;18.80;1.00
19365;DHT22;9818;48.382;10.850;2023-12-20T08:00:39;18.80;1.00
19365;DHT22;9818;48.382;10.850;2023-12-20T08:03:08;18.80;1.00
19365;DHT22;9818;48.382;10.850;2023-12-20T08:05:37;18.80;1.00
19365;DHT22;9818;48.382;10.850;2023-12-20T08:08:09;18.80;1.00
19365;DHT22;9818;48.382;10.850;2023-12-20T08:10:38;18.80;1.00
19365;DHT22;9818;48.382;10.850;2023-12-20T08:13:07;18.80;1.00
19365;DHT22;9818;48.382;10.850;2023-12-20T08:15:36;18.70;1.00
19365;DHT22;9818;48.382;10.850;2023-12-20T08:18:05;18.80;1.00
19365;DHT22;9818;48.382;10.850;2023-12-20T08:20:34;18.80;1.00
19365;DHT22;9818;48.382;10.850;2023-12-20T08:23:03;18.80;1.00
19365;DHT22;9818;48.382;10.850;2023-12-20T08:25:34;18.80;1.00
19365;DHT22;9818;48.382;10.850;2023-12-20T08:28:03;18.70;1.00
19365;DHT22;9818;48.382;10.850;2023-12-20T08:30:32;18.80;1.00
19365;DHT22;9818;48.382;10.850;2023-12-20T08:33:01;18.80;1.00
19365;DHT22;9818;48.382;10.850;2023-12-20T08:35:30;18.70;1.00
19365;DHT22;9818;48.382;10.850;2023-12-20T08:37:59;18.70;1.00
19365;DHT22;9818;48.382;10.850;2023-12-20T08:40:28;18.70;1.00
19365;DHT22;9818;48.382;10.850;2023-12-20T08:42:59;18.70;1.00
19365;DHT22;9818;48.382;10.850;2023-12-20T08:45:28;18.70;1.00
19365;DHT22;9818;48.382;10.850;2023-12-20T08:47:57;18.70;1.00
19365;DHT22;9818;48.382;10.850;2023-12-20T08:50:26;18.80;1.00
19365;DHT22;9818;48.382;10.850;2023-12-20T08:52:55;18.70;1.00
19365;DHT22;9818;48.382;10.850;2023-12-20T08:55:23;18.70;1.00
19365;DHT22;9818;48.382;10.850;2023-12-20T08:57:54;18.80;9.90
19365;DHT22;9818;48.382;10.850;2023-12-20T09:00:25;18.80;53.90
19365;DHT22;9818;48.382;10.850;2023-12-20T09:02:55;18.80;64.80
19365;DHT22;9818;48.382;10.850;2023-12-20T09:05:24;18.80;53.60
19365;DHT22;9818;48.382;10.850;2023-12-20T09:07:53;18.80;28.00
19365;DHT22;9818;48.382;10.850;2023-12-20T09:10:21;18.80;31.70
19365;DHT22;9818;48.382;10.850;2023-12-20T09:12:52;18.80;31.80
19365;DHT22;9818;48.382;10.850;2023-12-20T09:15:26;18.80;36.50
19365;DHT22;9818;48.382;10.850;2023-12-20T09:17:56;18.80;68.40
19365;DHT22;9818;48.382;10.850;2023-12-20T09:20:25;18.80;97.30
19365;DHT22;9818;48.382;10.850;2023-12-20T09:22:53;18.80;99.90
19365;DHT22;9818;48.382;10.850;2023-12-20T09:25:22;18.80;99.90
19365;DHT22;9818;48.382;10.850;2023-12-20T09:27:51;18.80;92.30
19365;DHT22;9818;48.382;10.850;2023-12-20T09:30:20;18.80;99.90
19365;DHT22;9818;48.382;10.850;2023-12-20T09:32:52;18.80;99.90
19365;DHT22;9818;48.382;10.850;2023-12-20T09:35:21;18.80;99.90
19365;DHT22;9818;48.382;10.850;2023-12-20T09:37:50;18.80;99.90
19365;DHT22;9818;48.382;10.850;2023-12-20T09:40:19;18.80;99.90
19365;DHT22;9818;48.382;10.850;2023-12-20T09:42:50;18.80;99.90
19365;DHT22;9818;48.382;10.850;2023-12-20T09:45:22;18.80;99.90
19365;DHT22;9818;48.382;10.850;2023-12-20T09:47:54;18.80;99.90
19365;DHT22;9818;48.382;10.850;2023-12-20T09:50:23;18.90;99.90
19365;DHT22;9818;48.382;10.850;2023-12-20T09:52:53;18.80;99.90
19365;DHT22;9818;48.382;10.850;2023-12-20T09:55:25;18.80;99.90
19365;DHT22;9818;48.382;10.850;2023-12-20T09:57:54;18.80;99.90
19365;DHT22;9818;48.382;10.850;2023-12-20T10:00:23;18.80;99.90
19365;DHT22;9818;48.382;10.850;2023-12-20T10:02:57;18.80;99.90
19365;DHT22;9818;48.382;10.850;2023-12-20T10:05:28;18.80;99.90
19365;DHT22;9818;48.382;10.850;2023-12-20T10:07:57;18.80;99.90
19365;DHT22;9818;48.382;10.850;2023-12-20T10:10:26;18.90;99.90
19365;DHT22;9818;48.382;10.850;2023-12-20T10:13:03;18.90;99.90
19365;DHT22;9818;48.382;10.850;2023-12-20T10:15:33;19.10;99.90
19365;DHT22;9818;48.382;10.850;2023-12-20T10:18:05;19.40;99.90
19365;DHT22;9818;48.382;10.850;2023-12-20T10:20:34;19.40;60.90
19365;DHT22;9818;48.382;10.850;2023-12-20T10:23:03;19.50;61.50
19365;DHT22;9818;48.382;10.850;2023-12-20T10:25:32;19.60;31.50
19365;DHT22;9818;48.382;10.850;2023-12-20T10:28:11;19.70;25.70
19365;DHT22;9818;48.382;10.850;2023-12-20T10:30:40;19.70;16.20
19365;DHT22;9818;48.382;10.850;2023-12-20T10:33:12;19.90;1.00
19365;DHT22;9818;48.382;10.850;2023-12-20T10:35:41;19.90;1.00
19365;DHT22;9818;48.382;10.850;2023-12-20T10:38:10;19.90;1.00
19365;DHT22;9818;48.382;10.850;2023-12-20T10:40:40;19.90;1.00
19365;DHT22;9818;48.382;10.850;2023-12-20T10:43:09;19.90;1.00
19365;DHT22;9818;48.382;10.850;2023-12-20T10:45:38;20.00;1.00
19365;DHT22;9818;48.382;10.850;2023-12-20T10:48:07;20.00;1.00
19365;DHT22;9818;48.382;10.850;2023-12-20T10:50:41;20.00;1.00
19365;DHT22;9818;48.382;10.850;2023-12-20T10:53:10;20.10;1.00
19365;DHT22;9818;48.382;10.850;2023-12-20T10:55:42;20.10;1.00
19365;DHT22;9818;48.382;10.850;2023-12-20T10:58:11;20.10;1.00
19365;DHT22;9818;48.382;10.850;2023-12-20T11:00:43;20.20;1.00
19365;DHT22;9818;48.382;10.850;2023-12-20T11:03:15;20.20;1.00
19365;DHT22;9818;48.382;10.850;2023-12-20T11:05:53;20.20;1.00
19365;DHT22;9818;48.382;10.850;2023-12-20T11:08:28;20.30;1.00
19365;DHT22;9818;48.382;10.850;2023-12-20T11:11:05;20.20;1.00
19365;DHT22;9818;48.382;10.850;2023-12-20T11:13:39;20.30;1.00
19365;DHT22;9818;48.382;10.850;2023-12-20T11:16:10;20.30;1.00
19365;DHT22;9818;48.382;10.850;2023-12-20T11:18:41;20.30;1.00
19365;DHT22;9818;48.382;10.850;2023-12-20T11:21:12;20.30;1.00
19365;DHT22;9818;48.382;10.850;2023-12-20T11:23:42;20.30;1.00
19365;DHT22;9818;48.382;10.850;2023-12-20T11:26:11;20.40;1.00
19365;DHT22;9818;48.382;10.850;2023-12-20T11:28:44;20.40;1.00
19365;DHT22;9818;48.382;10.850;2023-12-20T11:31:14;20.30;1.00
19365;DHT22;9818;48.382;10.850;2023-12-20T11:33:44;20.40;1.00
19365;DHT22;9818;48.382;10.850;2023-12-20T11:36:18;20.30;1.00
19365;DHT22;9818;48.382;10.850;2023-12-20T11:38:57;20.40;1.00
19365;DHT22;9818;48.382;10.850;2023-12-20T11:41:26;20.30;1.00
19365;DHT22;9818;48.382;10.850;2023-12-20T11:43:55;20.30;1.00
19365;DHT22;9818;48.382;10.850;2023-12-20T11:46:26;20.30;1.00
19365;DHT22;9818;48.382;10.850;2023-12-20T11:48:55;20.30;1.00
19365;DHT22;9818;48.382;10.850;2023-12-20T11:51:26;20.30;1.00
19365;DHT22;9818;48.382;10.850;2023-12-20T11:53:55;20.30;1.00
19365;DHT22;9818;48.382;10.850;2023-12-20T11:56:24;20.20;1.00
19365;DHT22;9818;48.382;10.850;2023-12-20T11:58:53;20.20;1.00
19365;DHT22;9818;48.382;10.850;2023-12-20T12:01:22;20.20;1.00
19365;DHT22;9818;48.382;10.850;2023-12-20T12:04:02;20.20;1.00
19365;DHT22;9818;48.382;10.850;2023-12-20T12:06:34;20.20;1.00
19365;DHT22;9818;48.382;10.850;2023-12-20T12:09:03;20.30;1.00
19365;DHT22;9818;48.382;10.850;2023-12-20T12:11:32;20.40;1.00
19365;DHT22;9818;48.382;10.850;2023-12-20T12:14:01;20.50;1.00
19365;DHT22;9818;48.382;10.850;2023-12-20T12:16:30;20.40;1.00
19365;DHT22;9818;48.382;10.850;2023-12-20T12:18:59;20.40;1.00
19365;DHT22;9818;48.382;10.850;2023-12-20T12:21:28;20.50;1.00
19365;DHT22;9818;48.382;10.850;2023-12-20T12:24:08;20.50;1.00
19365;DHT22;9818;48.382;10.850;2023-12-20T12:26:38;20.60;1.00
19365;DHT22;9818;48.382;10.850;2023-12-20T12:29:07;20.60;1.00
19365;DHT22;9818;48.382;10.850;2023-12-20T12:31:36;20.60;1.00
19365;DHT22;9818;48.382;10.850;2023-12-20T12:34:05;20.60;1.00
19365;DHT22;9818;48.382;10.850;2023-12-20T12:36:35;20.60;1.00
19365;DHT22;9818;48.382;10.850;2023-12-20T12:39:04;20.60;1.00
19365;DHT22;9818;48.382;10.850;2023-12-20T12:41:36;20.70;1.00
19365;DHT22;9818;48.382;10.850;2023-12-20T12:44:05;20.60;1.00
19365;DHT22;9818;48.382;10.850;2023-12-20T12:46:34;20.70;1.00
19365;DHT22;9818;48.382;10.850;2023-12-20T12:49:03;20.60;1.00
19365;DHT22;9818;48.382;10.850;2023-12-20T12:51:32;20.60;1.00
19365;DHT22;9818;48.382;10.850;2023-12-20T12:54:00;20.70;1.00
19365;DHT22;9818;48.382;10.850;2023-12-20T12:56:29;20.70;1.00
19365;DHT22;9818;48.382;10.850;2023-12-20T12:59:01;20.70;1.00
19365;DHT22;9818;48.382;10.850;2023-12-20T13:01:31;20.70;1.00
19365;DHT22;9818;48.382;10.850;2023-12-20T13:04:00;20.70;1.00
19365;DHT22;9818;48.382;10.850;2023-12-20T13:06:32;20.70;1.00
19365;DHT22;9818;48.382;10.850;2023-12-20T13:09:01;20.70;1.00
19365;DHT22;9818;48.382;10.850;2023-12-20T13:11:30;20.80;1.00
19365;DHT22;9818;48.382;10.850;2023-12-20T13:14:02;20.70;1.00
19365;DHT22;9818;48.382;10.850;2023-12-20T13:16:33;20.80;1.00
19365;DHT22;9818;48.382;10.850;2023-12-20T13:19:02;20.80;1.00
19365;DHT22;9818;48.382;10.850;2023-12-20T13:21:31;20.80;1.00
19365;DHT22;9818;48.382;10.850;2023-12-20T13:24:00;20.80;1.00
19365;DHT22;9818;48.382;10.850;2023-12-20T13:26:29;20.80;1.00
19365;DHT22;9818;48.382;10.850;2023-12-20T13:28:57;20.80;1.00
19365;DHT22;9818;48.382;10.850;2023-12-20T13:31:29;20.80;1.00
19365;DHT22;9818;48.382;10.850;2023-12-20T13:33:58;20.80;1.00
19365;DHT22;9818;48.382;10.850;2023-12-20T13:36:27;20.80;1.00
19365;DHT22;9818;48.382;10.850;2023-12-20T13:38:56;20.90;1.00
19365;DHT22;9818;48.382;10.850;2023-12-20T13:41:25;20.90;1.00
19365;DHT22;9818;48.382;10.850;2023-12-20T13:43:53;20.90;1.00
19365;DHT22;9818;48.382;10.850;2023-12-20T13:46:22;20.90;1.00
19365;DHT22;9818;48.382;10.850;2023-12-20T13:48:54;20.90;1.00
19365;DHT22;9818;48.382;10.850;2023-12-20T13:51:22;20.90;1.00
19365;DHT22;9818;48.382;10.850;2023-12-20T13:53:51;21.00;1.00
19365;DHT22;9818;48.382;10.850;2023-12-20T13:56:20;21.00;1.00
19365;DHT22;9818;48.382;10.850;2023-12-20T13:58:49;21.00;1.00
19365;DHT22;9818;48.382;10.850;2023-12-20T14:01:17;20.90;1.00
19365;DHT22;9818;48.382;10.850;2023-12-20T14:03:46;21.00;1.00
19365;DHT22;9818;48.382;10.850;2023-12-20T14:06:18;21.00;1.00
19365;DHT22;9818;48.382;10.850;2023-12-20T14:08:47;21.00;1.00
19365;DHT22;9818;48.382;10.850;2023-12-20T14:11:16;21.00;1.00
19365;DHT22;9818;48.382;10.850;2023-12-20T14:13:44;21.00;1.00
19365;DHT22;9818;48.382;10.850;2023-12-20T14:16:13;21.00;1.00
19365;DHT22;9818;48.382;10.850;2023-12-20T14:18:42;21.00;1.00
19365;DHT22;9818;48.382;10.850;2023-12-20T14:21:11;21.00;1.00
19365;DHT22;9818;48.382;10.850;2023-12-20T14:23:42;21.00;1.00
19365;DHT22;9818;48.382;10.850;2023-12-20T14:26:12;21.00;1.00
19365;DHT22;9818;48.382;10.850;2023-12-20T14:28:41;21.00;1.00
19365;DHT22;9818;48.382;10.850;2023-12-20T14:31:10;21.00;1.00
19365;DHT22;9818;48.382;10.850;2023-12-20T14:33:39;21.00;1.00
19365;DHT22;9818;48.382;10.850;2023-12-20T14:36:08;21.00;1.00
19365;DHT22;9818;48.382;10.850;2023-12-20T14:38:37;21.00;1.00
19365;DHT22;9818;48.382;10.850;2023-12-20T14:41:09;21.00;1.00
19365;DHT22;9818;48.382;10.850;2023-12-20T14:43:38;21.10;1.00
19365;DHT22;9818;48.382;10.850;2023-12-20T14:46:07;21.00;1.00
19365;DHT22;9818;48.382;10.850;2023-12-20T14:48:35;21.10;1.00
19365;DHT22;9818;48.382;10.850;2023-12-20T14:51:04;21.00;1.00
19365;DHT22;9818;48.382;10.850;2023-12-20T14:53:33;21.00;1.00
19365;DHT22;9818;48.382;10.850;2023-12-20T14:56:04;21.10;1.00
19365;DHT22;9818;48.382;10.850;2023-12-20T14:58:35;21.00;1.00
19365;DHT22;9818;48.382;10.850;2023-12-20T15:01:04;21.00;1.00
19365;DHT22;9818;48.382;10.850;2023-12-20T15:03:34;21.00;1.00
19365;DHT22;9818;48.382;10.850;2023-12-20T15:06:05;20.90;1.00
19365;DHT22;9818;48.382;10.850;2023-12-20T15:08:37;21.00;1.00
19365;DHT22;9818;48.382;10.850;2023-12-20T15:11:06;21.00;1.00
19365;DHT22;9818;48.382;10.850;2023-12-20T15:13:37;21.00;1.00
19365;DHT22;9818;48.382;10.850;2023-12-20T15:16:06;21.00;1.00
19365;DHT22;9818;48.382;10.850;2023-12-20T15:18:35;21.00;1.00
19365;DHT22;9818;48.382;10.850;2023-12-20T15:21:04;21.00;1.00
19365;DHT22;9818;48.382;10.850;2023-12-20T15:23:33;21.00;1.00
19365;DHT22;9818;48.382;10.850;2023-12-20T15:26:02;21.00;1.00
19365;DHT22;9818;48.382;10.850;2023-12-20T15:28:31;21.00;1.00
19365;DHT22;9818;48.382;10.850;2023-12-20T15:31:04;21.00;1.00
19365;DHT22;9818;48.382;10.850;2023-12-20T15:33:33;21.00;1.00
19365;DHT22;9818;48.382;10.850;2023-12-20T15:36:02;21.00;1.00
19365;DHT22;9818;48.382;10.850;2023-12-20T15:38:30;21.00;1.00
19365;DHT22;9818;48.382;10.850;2023-12-20T15:41:00;21.00;1.00
19365;DHT22;9818;48.382;10.850;2023-12-20T15:43:30;21.00;1.00
19365;DHT22;9818;48.382;10.850;2023-12-20T15:45:58;21.00;1.00
19365;DHT22;9818;48.382;10.850;2023-12-20T15:48:34;21.00;1.00
19365;DHT22;9818;48.382;10.850;2023-12-20T15:51:05;21.00;1.00
19365;DHT22;9818;48.382;10.850;2023-12-20T15:53:34;21.00;1.00
19365;DHT22;9818;48.382;10.850;2023-12-20T15:56:03;21.00;1.00
19365;DHT22;9818;48.382;10.850;2023-12-20T15:58:32;20.90;1.00